Etusivu
METAR-TAF:

METAR-TAF

Lentoasemat :

Dušanben kansainvälinen lentoasema

Dušanbe, Tadžikistan

Leveyspiiri: 38-33N, Pituuspiiri: 068-47E, korkeus merenpinnasta: 803 m

Tämänhetkinen sää

Tämä raportti tehtiin 36 minuuttia sitten, kello 17.00 UTC
Tuuli 2 kn eri suunnista
Lämpötila 21°C
Kosteus 53%
Ilmanpaine 1013 hPa
Näkyvyys 10 km tai enemmän

METAR: UTDD 211700Z VRB01MPS 9999 NSC 21/11 Q1013 R09/D NOSIG RMK QFE691/0922

Aika: 22:36 (17:36 UTC)

Sääennuste

Tämä raportti tehtiin 2 tuntia ja 36 minuuttia sitten, kello 15.00 UTC
Ennuste voimassa 21. päivästä klo 16 UTC - 22. päivään klo 04 UTC
Tuuli 4 kn eri suunnista
Näkyvyys: 6000 m
Muutamia pilviä 6600 ft:n korkeudessa, Cumulonimbus.
Hajanaisia pilviä 15000 ft:n korkeudessa

TAF: UTDD 211500Z 2116/2204 VRB02MPS 6000 FEW066CB SCT150

Säähavainnot ja -ennusteet yli 4000 lentoasemalta (METAR- ja TAF-raportit).

Käytössä olevat sääasemat on merkitty karttaan keltaisilla ja punaisilla pisteillä.

Aseta hiiri pisteen päälle nähdäksesi sääaseman nimen.

Klikkaa sitten nähdäksesi säähavainnot ja -ennusteet.

Kartan vaihtaminen: klikkaa mustalla rastilla varustettuja vihreitä pisteitä, niin voit zoomata sisään; viivalla varustettua vihreää pistettä, niin voit zoomata ulos tai vihreitä nuolia, niin pääset viereisille kartoille.


METAR-TAF: